createdAt,value
2022-11-19T00:08:45.510Z,22.60
2022-11-19T00:19:37.923Z,22.70
2022-11-19T00:30:05.506Z,22.80
2022-11-19T00:40:49.632Z,22.80
2022-11-19T00:51:02.667Z,22.80
2022-11-19T01:38:26.239Z,23.20
2022-11-19T02:00:46.596Z,23.10
2022-11-19T02:11:18.496Z,23.20
2022-11-19T02:22:34.187Z,23.20
2022-11-19T02:33:00.966Z,23.20
2022-11-19T02:54:58.697Z,23.40
2022-11-19T04:29:55.960Z,24.00
2022-11-19T05:04:23.481Z,24.10
2022-11-19T05:14:54.086Z,24.00
2022-11-19T05:25:35.274Z,24.00
2022-11-19T05:37:27.348Z,23.80
2022-11-19T08:06:16.201Z,23.70
2022-11-19T08:16:47.375Z,23.80
2022-11-19T08:38:46.129Z,23.80
2022-11-19T08:48:59.088Z,23.50
2022-11-19T08:59:19.627Z,23.40
2022-11-19T09:09:28.295Z,23.20
2022-11-19T09:19:52.621Z,23.10
2022-11-19T09:30:04.855Z,23.10
2022-11-19T09:40:26.622Z,23.00
2022-11-19T10:01:24.473Z,22.90
2022-11-19T10:11:51.192Z,22.90
2022-11-19T10:22:30.439Z,22.90
2022-11-19T10:32:48.616Z,22.90
2022-11-19T10:43:34.551Z,22.90
2022-11-19T11:39:55.438Z,22.70
2022-11-19T17:03:45.035Z,22.80
2022-11-19T17:47:23.144Z,23.50
2022-11-19T17:57:52.335Z,23.60
2022-11-19T18:08:05.960Z,23.60
2022-11-19T18:18:26.595Z,23.70
2022-11-19T18:28:48.768Z,23.70
2022-11-19T18:39:08.950Z,23.80
2022-11-19T18:49:45.983Z,23.30
2022-11-19T18:59:56.391Z,22.30
2022-11-19T19:11:16.025Z,22.20
2022-11-19T19:22:32.607Z,22.00
2022-11-19T19:32:52.038Z,21.40
2022-11-19T19:43:04.419Z,20.20
2022-11-19T19:53:21.739Z,20.80
2022-11-19T20:03:31.829Z,21.10
2022-11-19T20:13:45.684Z,20.60
2022-11-19T20:23:55.350Z,19.50
2022-11-19T20:34:14.011Z,19.10
2022-11-19T20:45:11.175Z,18.60
2022-11-19T20:55:21.261Z,18.50
2022-11-19T21:05:28.662Z,18.60
2022-11-19T21:15:38.505Z,18.80
2022-11-19T21:25:45.456Z,19.90
2022-11-19T21:35:53.989Z,20.30
2022-11-19T21:46:00.858Z,21.00
2022-11-19T21:56:10.128Z,21.80
2022-11-19T22:06:17.711Z,22.30
2022-11-19T22:16:26.622Z,22.60
2022-11-19T22:26:33.898Z,22.80
2022-11-19T22:36:43.682Z,22.90
2022-11-19T22:46:50.814Z,23.00
2022-11-19T22:56:59.443Z,23.10
2022-11-19T23:07:06.620Z,23.20
2022-11-19T23:17:15.488Z,23.30
2022-11-19T23:27:22.485Z,23.40
2022-11-19T23:37:31.147Z,23.40
2022-11-19T23:47:40.364Z,23.50
2022-11-19T23:57:48.912Z,22.60
